Hadley, Michigan
Current Conditions -  °F | °C
As of 12:54 PM on Thursday 30 Oct 2014 (Local Time) from KD95 Reporting Station
Overcast Overcast  
Wind Chill: 41°   Ceiling: 4200
Heat Index: 45°   Visibility: 10mi
Dew Point: 33°   Wind: 6mph
Humidity: 65%   Direction: 280°W
Pressure: 30.11"   Gusts: NA
Location:  42.95°N, 83.4°W
Report Text: KD95 301654Z AUTO 28005KT 10SM OVC042 07/01 A3011 RMK AO2 T00700008
Loading
Personal Weather Stations






























Interactive Weather Map
Tropical Storm Tracking
New forecast layout! Learn more

10-Day Weather Forecast

Advertisements
Track Severe Weather on mobile